Time;durP1;ratioP1;P1;durP2;ratioP2;P2;SDS_P1;SDS_P2;PMS_P1;PMS_P2;Temp;Humidity;BMP_temperature;BMP_pressure;BME280_temperature;BME280_humidity;BME280_pressure;Samples;Min_cycle;Max_cycle;Signal;HPM_P1;HPM_P2
2023/10/06 00:01:49;;;;;;;0.10;0.10;;;;;;;9.74;82.77;98765.91;4965831;28;20050;-67
2023/10/06 00:04:16;;;;;;;0.10;0.10;;;;;;;9.75;83.02;98759.34;4967331;28;20043;-68
2023/10/06 00:06:43;;;;;;;0.05;0.05;;;;;;;9.78;82.92;98761.50;4950121;28;20050;-68
2023/10/06 00:09:19;;;;;;;0.10;0.10;;;;;;;9.76;82.71;98755.53;4966524;28;20053;-67
2023/10/06 00:11:50;;;;;;;0.10;0.10;;;;;;;9.77;82.59;98757.16;4966761;28;20046;-67
2023/10/06 00:14:38;;;;;;;0.10;0.10;;;;;;;9.78;82.57;98739.66;4971712;28;20039;-67
2023/10/06 00:17:09;;;;;;;0.10;0.10;;;;;;;9.79;82.41;98744.00;4951499;28;20510;-71
2023/10/06 00:19:37;;;;;;;0.10;0.10;;;;;;;9.81;82.45;98735.50;4974460;28;20042;-67
2023/10/06 00:22:13;;;;;;;0.10;0.10;;;;;;;9.81;82.21;98736.34;4984764;28;20054;-68
2023/10/06 00:24:42;;;;;;;0.10;0.10;;;;;;;9.84;82.20;98726.75;4983215;28;20050;-67
2023/10/06 00:27:13;;;;;;;0.10;0.10;;;;;;;9.86;82.04;98736.25;4972889;28;20058;-67
2023/10/06 00:29:56;;;;;;;0.10;0.10;;;;;;;9.85;82.08;98731.91;4975355;28;20055;-67
2023/10/06 00:32:42;;;;;;;0.10;0.10;;;;;;;9.89;81.87;98732.91;4967520;28;20042;-67
2023/10/06 00:35:14;;;;;;;0.10;0.10;;;;;;;9.91;81.64;98725.28;4936026;28;20057;-67
2023/10/06 00:37:42;;;;;;;0.10;0.10;;;;;;;9.93;81.48;98709.41;4967360;28;20122;-67
2023/10/06 00:40:19;;;;;;;0.10;0.10;;;;;;;9.95;81.48;98711.81;4947409;28;20043;-67
2023/10/06 00:42:51;;;;;;;0.10;0.10;;;;;;;9.96;81.57;98710.72;4964743;28;20062;-67
2023/10/06 00:45:18;;;;;;;0.10;0.10;;;;;;;9.96;81.18;98716.16;4962790;28;20102;-68
2023/10/06 00:47:44;;;;;;;0.10;0.10;;;;;;;9.91;81.64;98706.16;4964935;28;20455;-67
2023/10/06 00:50:11;;;;;;;0.10;0.10;;;;;;;9.90;81.24;98676.41;4965593;28;20133;-66
2023/10/06 00:52:39;;;;;;;0.10;0.10;;;;;;;9.95;81.02;98689.19;4967779;28;20149;-67
2023/10/06 00:55:10;;;;;;;0.10;0.10;;;;;;;9.92;81.41;98691.41;4985199;28;20054;-67
2023/10/06 00:57:37;;;;;;;0.10;0.10;;;;;;;9.92;81.29;98699.59;4982209;28;20047;-67
2023/10/06 01:00:31;;;;;;;0.10;0.10;;;;;;;9.90;81.51;98677.19;4970893;28;20063;-67
2023/10/06 01:02:53;;;;;;;0.10;0.10;;;;;;;9.93;81.04;98675.81;4980945;28;20298;-67
2023/10/06 01:05:19;;;;;;;0.10;0.10;;;;;;;9.92;81.22;98664.09;4949309;28;20055;-66
2023/10/06 01:07:45;;;;;;;0.10;0.10;;;;;;;9.74;81.43;98632.97;4967112;28;20055;-66
2023/10/06 01:10:17;;;;;;;0.10;0.10;;;;;;;9.95;81.25;98664.59;4964214;28;20053;-66
2023/10/06 01:12:50;;;;;;;0.10;0.10;;;;;;;9.92;81.15;98663.25;4958615;28;20521;-67
2023/10/06 01:15:19;;;;;;;0.10;0.10;;;;;;;9.92;81.31;98657.81;4985923;28;20409;-66
2023/10/06 01:17:45;;;;;;;0.10;0.10;;;;;;;9.90;81.70;98649.09;4974999;28;20072;-66
2023/10/06 01:20:17;;;;;;;0.10;0.10;;;;;;;9.92;82.02;98650.44;4965246;28;20053;-66
2023/10/06 01:22:44;;;;;;;0.10;0.10;;;;;;;9.91;81.76;98648.81;4966357;28;20110;-66
2023/10/06 01:25:21;;;;;;;;;;;;;;;9.87;82.46;98639.59;4967086;28;20058;-67
2023/10/06 01:27:50;;;;;;;0.10;0.10;;;;;;;9.82;82.58;98633.38;4967031;28;20394;-67
2023/10/06 01:30:17;;;;;;;0.00;0.00;;;;;;;9.77;83.00;98628.84;4967140;28;20047;-67
2023/10/06 01:32:45;;;;;;;0.13;0.13;;;;;;;9.79;83.12;98632.88;4949594;28;20466;-67
2023/10/06 01:35:15;;;;;;;0.10;0.10;;;;;;;9.79;83.22;98623.91;4950607;28;20121;-68
2023/10/06 01:37:42;;;;;;;0.10;0.10;;;;;;;9.75;83.67;98617.41;4949786;28;20070;-69
2023/10/06 01:42:56;;;;;;;0.10;0.10;;;;;;;9.75;83.76;98610.03;4947677;28;20070;-67
2023/10/06 01:45:22;;;;;;;0.00;0.00;;;;;;;9.73;84.10;98611.44;4953783;28;20420;-68
2023/10/06 01:47:56;;;;;;;0.10;0.10;;;;;;;9.75;84.24;98620.94;4948059;28;20418;-68
2023/10/06 01:50:27;;;;;;;0.10;0.10;;;;;;;9.74;84.53;98610.31;4963990;28;20069;-67
2023/10/06 01:52:53;;;;;;;0.10;0.10;;;;;;;9.65;84.89;98575.53;4964259;28;20047;-68
2023/10/06 01:55:22;;;;;;;0.10;0.10;;;;;;;9.77;84.96;98598.81;4964653;28;20062;-68
2023/10/06 01:57:49;;;;;;;0.10;0.10;;;;;;;9.74;85.00;98593.94;4957637;28;20078;-68
2023/10/06 02:00:16;;;;;;;0.10;0.10;;;;;;;9.70;85.34;98590.19;4982853;28;20069;-67
2023/10/06 02:02:42;;;;;;;;;;;;;;;9.64;85.84;98567.63;4979744;28;20120;-67
2023/10/06 02:05:12;;;;;;;0.10;0.10;;;;;;;9.61;86.11;98573.69;4970641;28;19957;-67
2023/10/06 02:07:40;;;;;;;0.10;0.10;;;;;;;9.59;86.54;98573.19;4982991;28;20053;-67
2023/10/06 02:10:12;;;;;;;0.00;0.00;;;;;;;9.53;87.08;98569.72;4966085;28;20050;-67
2023/10/06 02:12:40;;;;;;;0.10;0.10;;;;;;;9.49;87.72;98560.53;4966835;28;20050;-66
2023/10/06 02:15:10;;;;;;;0.10;0.10;;;;;;;9.42;88.57;98558.16;4953083;28;20412;-66
2023/10/06 02:17:37;;;;;;;0.00;0.00;;;;;;;9.36;88.95;98556.63;4947119;28;20494;-67
2023/10/06 02:20:17;;;;;;;0.10;0.10;;;;;;;9.34;89.47;98556.94;4964530;28;20585;-66
2023/10/06 02:22:43;;;;;;;0.10;0.10;;;;;;;9.32;89.63;98553.69;4964936;28;20403;-66
2023/10/06 02:25:10;;;;;;;0.00;0.00;;;;;;;9.34;89.73;98556.09;4965438;28;20414;-65
2023/10/06 02:27:44;;;;;;;;;;;;;;;9.33;90.07;98544.41;4981160;28;20054;-66
2023/10/06 02:30:15;;;;;;;0.00;0.00;;;;;;;9.31;89.76;98559.44;4963637;28;19926;-66
2023/10/06 02:32:45;;;;;;;0.10;0.10;;;;;;;9.22;90.18;98534.75;4963419;28;20051;-66
2023/10/06 02:35:12;;;;;;;0.10;0.10;;;;;;;9.29;90.34;98532.47;4976870;28;20049;-67
2023/10/06 02:37:39;;;;;;;0.00;0.00;;;;;;;9.28;90.29;98516.38;4983196;28;20488;-66
2023/10/06 02:40:11;;;;;;;0.10;0.10;;;;;;;9.35;90.35;98535.91;4962022;28;20050;-67
2023/10/06 02:42:43;;;;;;;0.10;0.10;;;;;;;8.77;90.07;98426.91;4930278;28;20055;-67
2023/10/06 02:45:16;;;;;;;0.10;0.10;;;;;;;9.36;90.35;98529.34;4954591;28;20058;-66
2023/10/06 02:47:44;;;;;;;0.10;0.10;;;;;;;9.32;90.15;98523.69;4965486;28;20525;-68
2023/10/06 02:50:12;;;;;;;;;;;;;;;9.32;90.54;98534.59;4969815;28;20050;-66
2023/10/06 02:52:42;;;;;;;0.10;0.10;;;;;;;9.34;90.18;98517.91;4983046;28;19926;-67
2023/10/06 02:55:10;;;;;;;0.10;0.10;;;;;;;9.30;90.64;98533.25;4982121;28;20050;-67
2023/10/06 02:57:38;;;;;;;0.10;0.10;;;;;;;9.30;90.81;98520.44;4982808;28;20152;-67
2023/10/06 03:00:50;;;;;;;0.10;0.10;;;;;;;9.30;91.08;98508.72;4981969;28;20068;-67
2023/10/06 03:03:03;;;;;;;0.00;0.00;;;;;;;9.34;91.21;98515.19;4978774;28;20055;-67
2023/10/06 03:05:33;;;;;;;0.10;0.10;;;;;;;9.34;90.72;98507.00;4974081;28;20098;-67
2023/10/06 03:08:01;;;;;;;0.10;0.10;;;;;;;9.35;90.71;98500.44;4948825;28;20050;-67
2023/10/06 03:10:35;;;;;;;0.10;0.10;;;;;;;9.38;90.41;98494.41;4963158;28;20138;-69
2023/10/06 03:13:03;;;;;;;0.10;0.10;;;;;;;9.39;90.12;98495.19;4969481;28;20136;-67
2023/10/06 03:15:35;;;;;;;0.10;0.10;;;;;;;9.47;89.69;98506.25;4931001;28;20062;-68
2023/10/06 03:18:05;;;;;;;0.10;0.10;;;;;;;9.50;89.64;98485.75;4963370;28;20596;-68
2023/10/06 03:20:41;;;;;;;0.10;0.10;;;;;;;9.57;89.49;98485.34;4963086;28;20101;-67
2023/10/06 03:23:43;;;;;;;0.10;0.10;;;;;;;9.55;89.69;98487.56;4967428;28;20517;-67
2023/10/06 03:26:03;;;;;;;0.03;0.03;;;;;;;9.58;90.23;98481.50;4963909;28;20066;-68
2023/10/06 03:28:32;;;;;;;0.10;0.10;;;;;;;9.58;90.67;98476.06;4946377;28;20055;-67
2023/10/06 03:31:03;;;;;;;0.10;0.10;;;;;;;9.54;91.11;98473.09;4979528;28;20514;-67
2023/10/06 03:33:32;;;;;;;0.10;0.10;;;;;;;9.48;91.98;98479.78;4962454;28;20058;-68
2023/10/06 03:35:58;;;;;;;0.10;0.10;;;;;;;9.44;92.33;98456.91;4962840;28;20273;-68
2023/10/06 03:38:32;;;;;;;0.10;0.10;;;;;;;9.43;92.94;98467.03;4947896;28;20506;-67
2023/10/06 03:46:24;;;;;;;0.10;0.10;;;;;;;9.58;91.36;98454.22;4921218;29;20055;-66
2023/10/06 03:48:52;;;;;;;0.10;0.10;;;;;;;9.60;91.22;98441.09;4909797;29;20047;-66
2023/10/06 03:51:19;;;;;;;0.10;0.10;;;;;;;9.65;90.88;98449.16;4892587;29;20631;-66
2023/10/06 03:53:48;;;;;;;0.10;0.10;;;;;;;9.68;90.49;98454.03;4905785;29;20154;-68
2023/10/06 03:56:17;;;;;;;0.10;0.10;;;;;;;9.68;90.30;98453.22;4905849;29;20404;-67
2023/10/06 03:58:45;;;;;;;0.10;0.10;;;;;;;9.64;90.04;98434.72;4912878;29;20551;-67
2023/10/06 04:01:16;;;;;;;;;;;;;;;9.65;89.94;98450.00;4926616;29;20138;-67
2023/10/06 04:03:43;;;;;;;0.10;0.10;;;;;;;9.62;89.66;98445.13;4924862;29;19926;-67
2023/10/06 04:06:12;;;;;;;0.03;0.03;;;;;;;9.67;90.10;98443.41;4924797;29;20055;-67
2023/10/06 04:08:44;;;;;;;0.10;0.10;;;;;;;9.69;89.82;98438.47;4944965;29;20119;-67
2023/10/06 04:11:15;;;;;;;0.10;0.10;;;;;;;9.71;89.92;98437.06;4947185;29;20083;-67
2023/10/06 04:13:42;;;;;;;0.10;0.10;;;;;;;9.75;89.75;98445.44;4908151;29;20538;-67
2023/10/06 04:16:09;;;;;;;0.10;0.10;;;;;;;9.76;89.91;98436.94;4929935;29;20067;-67
2023/10/06 04:18:35;;;;;;;0.10;0.10;;;;;;;9.72;90.35;98435.13;4909931;29;20051;-67
2023/10/06 04:21:03;;;;;;;0.10;0.10;;;;;;;9.68;90.54;98426.75;4921143;28;20454;-68
2023/10/06 04:23:31;;;;;;;0.10;0.10;;;;;;;9.68;90.83;98432.22;4975263;28;20109;-68
2023/10/06 04:25:57;;;;;;;;;;;;;;;9.72;90.76;98426.94;4976441;28;20410;-68
2023/10/06 04:28:25;;;;;;;0.10;0.10;;;;;;;9.74;90.28;98431.00;4974058;28;19930;-68
2023/10/06 04:30:51;;;;;;;0.00;0.00;;;;;;;9.72;90.27;98421.47;4968353;28;20043;-68
2023/10/06 04:36:09;;;;;;;0.00;0.00;;;;;;;9.76;89.83;98417.84;4972180;28;20046;-67
2023/10/06 04:38:39;;;;;;;0.10;0.10;;;;;;;9.83;89.61;98409.25;4964039;28;20078;-66
2023/10/06 04:41:08;;;;;;;0.10;0.10;;;;;;;9.87;89.14;98414.91;4974868;28;20473;-67
2023/10/06 04:43:36;;;;;;;0.10;0.10;;;;;;;9.87;88.82;98412.97;4980900;28;20050;-67
2023/10/06 04:46:05;;;;;;;0.10;0.10;;;;;;;9.84;88.48;98397.22;4971773;28;20426;-67
2023/10/06 04:48:35;;;;;;;0.10;0.10;;;;;;;9.82;88.47;98409.53;4975118;28;20047;-68
2023/10/06 04:51:03;;;;;;;0.10;0.10;;;;;;;9.86;88.14;98408.63;4939298;28;20518;-68
2023/10/06 04:53:35;;;;;;;0.00;0.00;;;;;;;9.87;88.10;98402.06;4977863;28;20042;-67
2023/10/06 04:56:05;;;;;;;0.10;0.10;;;;;;;9.90;87.84;98409.63;4985409;28;20125;-68
2023/10/06 04:58:33;;;;;;;0.10;0.10;;;;;;;9.88;88.12;98397.44;4964479;28;20668;-67
2023/10/06 05:01:00;;;;;;;0.10;0.10;;;;;;;9.81;88.10;98397.00;4961510;28;20165;-67
2023/10/06 05:03:27;;;;;;;0.10;0.10;;;;;;;9.83;88.14;98395.59;4972210;28;20050;-66
2023/10/06 05:05:57;;;;;;;0.10;0.10;;;;;;;9.91;87.75;98391.34;4629098;28;10000272;-67
2023/10/06 05:08:24;;;;;;;0.10;0.10;;;;;;;10.02;87.37;98386.47;4978629;28;20047;-67
2023/10/06 05:10:52;;;;;;;0.10;0.10;;;;;;;10.03;86.95;98372.53;4964857;28;20686;-67
2023/10/06 05:13:20;;;;;;;0.10;0.10;;;;;;;10.13;85.94;98390.63;4985303;28;20512;-67
2023/10/06 05:15:46;;;;;;;0.10;0.10;;;;;;;10.13;85.68;98381.59;4977983;28;20063;-67
2023/10/06 05:18:18;;;;;;;0.10;0.10;;;;;;;10.15;85.19;98377.47;4965309;28;20487;-66
2023/10/06 05:20:46;;;;;;;0.10;0.10;;;;;;;10.12;84.34;98383.53;4959551;28;20128;-66
2023/10/06 05:23:14;;;;;;;;;;;;;;;10.12;84.58;98379.97;4961243;28;20430;-66
2023/10/06 05:25:41;;;;;;;0.10;0.10;;;;;;;10.19;83.84;98369.47;4964704;28;20138;-66
2023/10/06 05:28:10;;;;;;;0.10;0.10;;;;;;;10.16;83.80;98373.59;4949988;28;20162;-66
2023/10/06 05:30:39;;;;;;;0.10;0.10;;;;;;;10.07;84.02;98376.25;4955318;28;20141;-67
2023/10/06 05:33:08;;;;;;;0.10;0.10;;;;;;;10.04;84.28;98368.69;4958151;28;20039;-67
2023/10/06 05:35:41;;;;;;;0.10;0.10;;;;;;;10.11;84.15;98367.44;4961200;28;20058;-66
2023/10/06 05:38:15;;;;;;;0.10;0.10;;;;;;;10.20;82.59;98384.75;4930312;28;20057;-68
2023/10/06 05:40:46;;;;;;;0.10;0.10;;;;;;;10.24;82.52;98354.91;4952953;28;20526;-66
2023/10/06 05:43:15;;;;;;;0.10;0.10;;;;;;;10.29;82.31;98355.56;4955816;28;20073;-66
2023/10/06 05:45:52;;;;;;;0.10;0.10;;;;;;;10.32;82.42;98354.97;4958904;28;20063;-67
2023/10/06 05:48:22;;;;;;;0.10;0.10;;;;;;;10.35;81.71;98359.81;4936108;28;20518;-66
2023/10/06 05:50:49;;;;;;;0.10;0.10;;;;;;;10.24;81.29;98347.50;4951091;28;20046;-66
2023/10/06 05:53:30;;;;;;;0.10;0.10;;;;;;;10.40;81.23;98367.09;4957780;28;20524;-67
2023/10/06 05:55:58;;;;;;;0.10;0.10;;;;;;;10.53;81.02;98362.72;4975066;28;20529;-66
2023/10/06 05:58:24;;;;;;;0.10;0.10;;;;;;;10.57;80.37;98366.44;4967859;28;20054;-66
2023/10/06 06:00:55;;;;;;;0.10;0.10;;;;;;;10.52;80.56;98377.50;4961964;28;20539;-67
2023/10/06 06:03:23;;;;;;;0.10;0.10;;;;;;;10.46;80.19;98359.59;4965963;28;20666;-67
2023/10/06 06:05:53;;;;;;;0.10;0.10;;;;;;;10.36;80.53;98350.50;4962915;28;21028;-67
2023/10/06 06:08:20;;;;;;;0.10;0.10;;;;;;;10.40;80.17;98336.22;4969185;28;20522;-66
2023/10/06 06:10:47;;;;;;;0.10;0.10;;;;;;;10.46;80.25;98349.47;4972642;28;20050;-66
2023/10/06 06:13:17;;;;;;;0.10;0.10;;;;;;;10.57;79.39;98328.16;4986748;28;20137;-66
2023/10/06 06:15:43;;;;;;;0.10;0.10;;;;;;;10.72;78.88;98335.19;4977824;28;20055;-66
2023/10/06 06:18:13;;;;;;;0.10;0.10;;;;;;;10.87;78.59;98331.25;4984185;28;20053;-66
2023/10/06 06:20:45;;;;;;;0.10;0.10;;;;;;;11.00;78.21;98345.16;4966011;28;20093;-66
2023/10/06 06:23:15;;;;;;;0.10;0.10;;;;;;;11.07;76.91;98340.03;4965571;28;20556;-68
2023/10/06 06:25:46;;;;;;;0.10;0.10;;;;;;;11.06;77.12;98330.22;4983336;28;20046;-66
2023/10/06 06:28:12;;;;;;;0.10;0.10;;;;;;;11.11;76.78;98321.09;4967106;28;20703;-67
2023/10/06 06:30:40;;;;;;;0.10;0.10;;;;;;;11.17;76.55;98339.78;4965411;28;20534;-67
2023/10/06 06:33:08;;;;;;;0.10;0.10;;;;;;;11.16;76.06;98326.41;4964024;28;20097;-67
2023/10/06 06:35:36;;;;;;;0.10;0.10;;;;;;;11.09;76.66;98326.88;4967230;28;20054;-68
2023/10/06 06:38:04;;;;;;;0.10;0.10;;;;;;;10.94;76.33;98316.34;4968315;28;20050;-67
2023/10/06 06:40:32;;;;;;;0.10;0.10;;;;;;;10.89;77.08;98306.34;4958340;28;20585;-66
2023/10/06 06:43:01;;;;;;;;;;;;;;;10.94;77.27;98310.88;4969485;28;20141;-66
2023/10/06 06:45:36;;;;;;;0.10;0.10;;;;;;;10.90;76.99;98302.50;4964035;28;20188;-67
2023/10/06 06:48:03;;;;;;;0.10;0.10;;;;;;;10.87;77.35;98312.13;4965200;28;20074;-67
2023/10/06 06:50:31;;;;;;;0.10;0.10;;;;;;;10.83;77.44;98282.97;4967045;28;20050;-67
2023/10/06 06:53:04;;;;;;;0.10;0.10;;;;;;;10.76;77.76;98273.31;4941992;28;20054;-69
2023/10/06 06:55:31;;;;;;;0.10;0.10;;;;;;;10.85;77.78;98286.19;4968153;28;20110;-68
2023/10/06 06:58:00;;;;;;;0.10;0.10;;;;;;;10.91;78.43;98290.44;4968213;28;20070;-68
2023/10/06 07:00:26;;;;;;;0.10;0.10;;;;;;;10.97;77.70;98286.44;4970943;28;20513;-69
2023/10/06 07:02:53;;;;;;;0.10;0.10;;;;;;;11.02;76.91;98283.56;4987834;28;20123;-69
2023/10/06 07:05:21;;;;;;;0.15;0.15;;;;;;;11.13;76.21;98286.84;4970586;28;20597;-69
2023/10/06 07:07:50;;;;;;;0.20;0.20;;;;;;;11.17;75.84;98298.75;4968610;28;20051;-68
2023/10/06 07:10:20;;;;;;;0.17;0.17;;;;;;;11.26;76.18;98284.31;4965758;28;20050;-67
2023/10/06 07:12:47;;;;;;;0.10;0.10;;;;;;;11.42;75.62;98282.75;4962931;28;20307;-67
2023/10/06 07:15:19;;;;;;;0.20;0.20;;;;;;;11.43;75.29;98267.94;4959964;28;20609;-67
2023/10/06 07:17:48;;;;;;;0.10;0.10;;;;;;;11.36;75.41;98270.31;4966186;28;20046;-66
2023/10/06 07:20:16;;;;;;;0.10;0.10;;;;;;;11.29;76.23;98270.00;4950162;28;20047;-66
2023/10/06 07:22:49;;;;;;;0.20;0.20;;;;;;;11.25;76.44;98269.03;4968481;28;20062;-69
2023/10/06 07:25:18;;;;;;;0.10;0.10;;;;;;;11.18;76.42;98255.81;4969341;28;20538;-67
2023/10/06 07:27:47;;;;;;;0.10;0.10;;;;;;;11.03;76.87;98260.56;4983776;28;20062;-69
2023/10/06 07:30:22;;;;;;;0.10;0.10;;;;;;;10.95;77.54;98249.59;4973767;28;20051;-67
2023/10/06 07:32:50;;;;;;;0.10;0.10;;;;;;;10.83;77.87;98258.38;4947840;28;20133;-67
2023/10/06 07:35:19;;;;;;;0.10;0.10;;;;;;;10.75;78.80;98247.09;4953163;28;20517;-66
2023/10/06 07:37:47;;;;;;;0.10;0.10;;;;;;;10.66;80.37;98238.03;4973250;28;20046;-68
2023/10/06 07:40:18;;;;;;;0.10;0.10;;;;;;;10.54;82.52;98251.50;4971371;28;20571;-68
2023/10/06 07:42:48;;;;;;;0.10;0.10;;;;;;;10.25;85.29;98228.13;4973035;28;20542;-68
2023/10/06 07:45:15;;;;;;;0.10;0.10;;;;;;;10.12;86.90;98240.72;4970782;28;20058;-66
2023/10/06 07:47:42;;;;;;;0.10;0.10;;;;;;;10.03;88.36;98238.72;4972102;28;20054;-67
2023/10/06 07:50:15;;;;;;;0.10;0.10;;;;;;;10.02;89.18;98239.84;4969670;28;20063;-66
2023/10/06 07:52:42;;;;;;;0.10;0.10;;;;;;;10.07;89.21;98234.25;4968993;28;20101;-66
2023/10/06 07:55:12;;;;;;;0.10;0.10;;;;;;;10.07;89.16;98236.19;4970347;28;20109;-68
2023/10/06 07:57:45;;;;;;;0.10;0.10;;;;;;;10.11;88.71;98245.38;4969495;28;20581;-66
2023/10/06 08:03:11;;;;;;;0.10;0.10;;;;;;;10.06;90.65;98240.84;4980083;28;20050;-67
2023/10/06 08:05:38;;;;;;;0.10;0.10;;;;;;;9.86;92.53;98230.41;4967171;28;20050;-68
2023/10/06 08:08:04;;;;;;;0.10;0.10;;;;;;;9.73;94.16;98243.78;4968891;28;20110;-68
2023/10/06 08:10:31;;;;;;;0.10;0.10;;;;;;;9.60;95.07;98225.50;4969512;28;20050;-68
2023/10/06 08:13:00;;;;;;;0.10;0.10;;;;;;;9.54;96.06;98219.34;4968530;28;20720;-68
2023/10/06 08:15:28;;;;;;;0.10;0.10;;;;;;;9.62;97.39;98223.28;4971839;28;20047;-68
2023/10/06 08:17:55;;;;;;;0.10;0.10;;;;;;;9.82;98.47;98213.00;4971984;28;20357;-68
2023/10/06 08:20:24;;;;;;;0.10;0.10;;;;;;;9.90;97.57;98215.00;4965017;28;20077;-68
2023/10/06 08:22:50;;;;;;;0.10;0.10;;;;;;;10.02;97.57;98211.72;4965073;28;20047;-67
2023/10/06 08:25:18;;;;;;;0.10;0.10;;;;;;;10.26;97.49;98216.88;4976837;28;20116;-67
2023/10/06 08:27:47;;;;;;;0.10;0.10;;;;;;;10.34;96.52;98205.19;4986058;28;20434;-67
2023/10/06 08:30:19;;;;;;;0.10;0.10;;;;;;;10.41;95.68;98209.44;4987266;28;20050;-68
2023/10/06 08:32:50;;;;;;;0.10;0.10;;;;;;;10.57;95.31;98201.66;4988750;28;20050;-68
2023/10/06 08:35:17;;;;;;;0.10;0.10;;;;;;;10.71;94.06;98204.28;4976141;28;20043;-68
2023/10/06 08:37:44;;;;;;;0.10;0.10;;;;;;;10.77;92.98;98208.47;4968151;28;20109;-69
2023/10/06 08:40:16;;;;;;;0.17;0.17;;;;;;;10.86;92.12;98203.88;4966060;28;20647;-68
2023/10/06 08:42:56;;;;;;;0.10;0.10;;;;;;;11.01;91.40;98207.31;4985068;28;20438;-69
2023/10/06 08:45:24;;;;;;;0.10;0.10;;;;;;;11.02;88.45;98176.91;4966023;28;20426;-68
2023/10/06 08:47:53;;;;;;;0.10;0.10;;;;;;;11.20;85.95;98194.16;4968000;28;20398;-68
2023/10/06 08:50:24;;;;;;;0.10;0.10;;;;;;;11.16;85.85;98173.22;4969096;28;20129;-69
2023/10/06 08:52:51;;;;;;;0.10;0.10;;;;;;;11.29;84.92;98191.44;4971003;28;20181;-68
2023/10/06 08:55:18;;;;;;;0.10;0.10;;;;;;;11.31;84.66;98188.41;4966750;28;20050;-68
2023/10/06 08:57:46;;;;;;;0.13;0.13;;;;;;;11.41;83.91;98193.56;4951234;28;20058;-68
2023/10/06 09:00:14;;;;;;;0.20;0.20;;;;;;;11.63;80.71;98191.81;4962832;28;20079;-68
2023/10/06 09:02:41;;;;;;;0.20;0.20;;;;;;;11.59;78.56;98175.22;4961088;28;20418;-68
2023/10/06 09:05:10;;;;;;;0.10;0.10;;;;;;;11.65;77.65;98192.28;4984854;28;20099;-68
2023/10/06 09:07:36;;;;;;;0.10;0.10;;;;;;;11.81;77.93;98175.38;4984167;28;20305;-67
2023/10/06 09:10:17;;;;;;;0.20;0.20;;;;;;;12.16;77.12;98178.13;4969103;28;20053;-68
2023/10/06 09:12:46;;;;;;;0.20;0.20;;;;;;;12.52;75.42;98170.63;4967936;28;20062;-69
2023/10/06 09:15:16;;;;;;;0.20;0.20;;;;;;;12.51;74.49;98183.53;4965371;28;20514;-68
2023/10/06 09:17:42;;;;;;;0.20;0.20;;;;;;;12.43;74.44;98185.19;4969413;28;20502;-68
2023/10/06 09:20:11;;;;;;;0.20;0.20;;;;;;;12.30;74.18;98181.47;4959548;28;20050;-69
2023/10/06 09:22:45;;;;;;;0.30;0.30;;;;;;;12.71;72.35;98197.66;4949075;28;20515;-69
2023/10/06 09:25:11;;;;;;;0.30;0.30;;;;;;;13.13;68.96;98202.47;4948789;28;20422;-69
2023/10/06 09:27:38;;;;;;;0.50;0.50;;;;;;;13.90;65.58;98194.06;4957725;28;20046;-68
2023/10/06 09:30:11;;;;;;;0.30;0.30;;;;;;;14.51;62.20;98178.13;4956514;28;20601;-68
2023/10/06 09:32:39;;;;;;;0.20;0.20;;;;;;;14.43;62.40;98210.06;4956861;28;20046;-68
2023/10/06 09:35:20;;;;;;;0.20;0.20;;;;;;;14.20;62.45;98181.38;4968037;28;20046;-67
2023/10/06 09:37:46;;;;;;;0.30;0.30;;;;;;;13.77;62.89;98183.38;4969783;28;20054;-68
2023/10/06 09:40:22;;;;;;;0.20;0.20;;;;;;;13.67;63.62;98162.59;4969495;28;20074;-68
2023/10/06 09:42:50;;;;;;;0.30;0.30;;;;;;;13.94;63.50;98163.16;4982448;28;20348;-68
2023/10/06 09:45:18;;;;;;;0.30;0.30;;;;;;;13.88;63.67;98157.06;4976598;28;20070;-68
2023/10/06 09:47:50;;;;;;;0.20;0.20;;;;;;;13.91;63.71;98150.94;4971005;28;20403;-68
2023/10/06 09:50:21;;;;;;;0.30;0.30;;;;;;;14.06;63.37;98160.47;4966219;28;20318;-67
2023/10/06 09:52:49;;;;;;;0.30;0.30;;;;;;;14.13;62.39;98160.75;4967087;28;20074;-68
2023/10/06 09:55:17;;;;;;;0.30;0.30;;;;;;;14.31;60.74;98166.06;4980706;28;20141;-68
2023/10/06 09:57:47;;;;;;;0.30;0.30;;;;;;;14.45;59.99;98152.81;4969193;28;20540;-67
2023/10/06 10:00:18;;;;;;;0.40;0.40;;;;;;;14.52;59.28;98152.25;4952541;28;20399;-68
2023/10/06 10:02:47;;;;;;;0.38;0.38;;;;;;;15.14;57.44;98155.03;4969190;28;20131;-68
2023/10/06 10:05:18;;;;;;;0.30;0.30;;;;;;;15.74;55.87;98140.66;4971944;28;20058;-68
2023/10/06 10:07:48;;;;;;;0.30;0.30;;;;;;;15.17;57.07;98135.09;4967868;28;20077;-68
2023/10/06 10:10:15;;;;;;;0.20;0.20;;;;;;;14.57;58.56;98162.19;4966883;28;20078;-68
2023/10/06 10:13:22;;;;;;;0.20;0.20;;;;;;;13.88;60.55;98148.84;4980283;28;20061;-68
2023/10/06 10:16:09;;;;;;;0.28;0.28;;;;;;;13.43;62.44;98151.16;4957447;28;20200;-69
2023/10/06 10:18:38;;;;;;;0.20;0.20;;;;;;;13.18;63.25;98126.25;5003239;28;20104;-69
2023/10/06 10:21:06;;;;;;;0.20;0.20;;;;;;;13.11;64.36;98147.94;4967868;28;20084;-69
2023/10/06 10:23:37;;;;;;;0.20;0.20;;;;;;;13.07;64.95;98138.75;4982702;28;20142;-68
2023/10/06 10:26:15;;;;;;;0.30;0.30;;;;;;;13.07;65.65;98135.22;4966282;28;20081;-67
2023/10/06 10:28:43;;;;;;;0.20;0.20;;;;;;;13.14;66.19;98125.31;4968488;28;20050;-68
2023/10/06 10:31:17;;;;;;;;;;;;;;;13.31;65.43;98129.09;4955983;28;20050;-69
2023/10/06 10:33:46;;;;;;;0.22;0.22;;;;;;;13.50;64.35;98125.09;4983754;28;19930;-69
2023/10/06 10:36:20;;;;;;;0.30;0.30;;;;;;;13.66;64.46;98122.53;4994608;28;20038;-69
2023/10/06 10:39:01;;;;;;;0.20;0.20;;;;;;;14.63;61.29;98119.59;4950045;28;20047;-69
2023/10/06 10:41:34;;;;;;;0.20;0.20;;;;;;;14.61;60.58;98133.69;4969459;28;20082;-69
2023/10/06 10:44:05;;;;;;;0.20;0.20;;;;;;;14.16;62.02;98131.75;4967157;28;20522;-68
2023/10/06 10:46:38;;;;;;;0.20;0.20;;;;;;;13.80;63.12;98122.25;4983306;28;20046;-68
2023/10/06 10:49:09;;;;;;;0.30;0.30;;;;;;;13.52;64.46;98131.88;4986576;28;20078;-68
2023/10/06 10:51:49;;;;;;;0.20;0.20;;;;;;;13.38;65.74;98132.09;4968695;28;20062;-68
2023/10/06 10:54:21;;;;;;;0.22;0.22;;;;;;;13.48;65.37;98133.66;4966084;28;20100;-68
2023/10/06 10:56:51;;;;;;;0.20;0.20;;;;;;;13.37;64.44;98146.97;4964808;28;20057;-68
2023/10/06 10:59:20;;;;;;;0.20;0.20;;;;;;;13.21;65.22;98143.19;4972181;28;20458;-69
2023/10/06 11:01:51;;;;;;;0.20;0.20;;;;;;;13.09;65.99;98141.19;4974345;28;20046;-69
2023/10/06 11:06:55;;;;;;;0.20;0.20;;;;;;;12.60;68.15;98136.91;4968887;28;20450;-68
2023/10/06 11:09:26;;;;;;;0.10;0.10;;;;;;;12.38;68.05;98140.69;4977136;28;20129;-68
2023/10/06 11:11:55;;;;;;;0.17;0.17;;;;;;;12.20;69.45;98138.00;4977585;28;20046;-68
2023/10/06 11:14:23;;;;;;;0.20;0.20;;;;;;;12.00;70.78;98134.75;4979423;28;20101;-67
2023/10/06 11:16:50;;;;;;;0.20;0.20;;;;;;;11.76;73.08;98143.50;4978495;28;20051;-68
2023/10/06 11:19:18;;;;;;;0.10;0.10;;;;;;;11.60;74.31;98133.03;4980080;28;20054;-68
2023/10/06 11:21:50;;;;;;;;;;;;;;;11.47;76.07;98147.69;4983827;28;20061;-69
2023/10/06 11:24:28;;;;;;;0.10;0.10;;;;;;;11.30;78.77;98153.97;4977156;28;20004;-67
2023/10/06 11:26:55;;;;;;;0.10;0.10;;;;;;;11.09;80.91;98149.09;4998336;28;20104;-67
2023/10/06 11:29:29;;;;;;;0.10;0.10;;;;;;;10.93;83.12;98146.00;4986673;28;20057;-68
2023/10/06 11:31:57;;;;;;;0.15;0.15;;;;;;;10.78;86.08;98160.91;4982505;28;20179;-67
2023/10/06 11:34:24;;;;;;;;;;;;;;;10.54;89.12;98155.84;4985134;28;20458;-67
2023/10/06 11:36:53;;;;;;;0.10;0.10;;;;;;;10.30;90.89;98151.50;4982582;28;20290;-67
2023/10/06 11:39:24;;;;;;;0.10;0.10;;;;;;;10.18;90.70;98154.81;4982911;28;20229;-68
2023/10/06 11:41:55;;;;;;;0.10;0.10;;;;;;;10.15;91.02;98155.44;4979368;28;20113;-67
2023/10/06 11:44:37;;;;;;;0.10;0.10;;;;;;;10.17;90.79;98145.81;4959565;28;20145;-67
2023/10/06 11:47:04;;;;;;;0.10;0.10;;;;;;;10.28;90.46;98165.47;4965808;28;20581;-68
2023/10/06 11:49:30;;;;;;;0.10;0.10;;;;;;;10.38;88.58;98169.06;4948328;28;20050;-68
2023/10/06 11:51:57;;;;;;;0.10;0.10;;;;;;;10.38;84.96;98167.16;4966748;28;20054;-68
2023/10/06 11:54:25;;;;;;;0.10;0.10;;;;;;;10.40;82.66;98166.81;4964250;28;20055;-67
2023/10/06 11:56:55;;;;;;;0.10;0.10;;;;;;;10.35;81.83;98165.00;4950436;28;20090;-67
2023/10/06 11:59:26;;;;;;;0.10;0.10;;;;;;;10.31;81.78;98175.78;4965780;28;20047;-67
2023/10/06 12:01:52;;;;;;;0.10;0.10;;;;;;;10.15;84.99;98174.56;4965944;28;20082;-68
2023/10/06 12:04:32;;;;;;;0.10;0.10;;;;;;;9.81;89.73;98176.72;4966536;28;20066;-67
2023/10/06 12:06:58;;;;;;;0.10;0.10;;;;;;;9.48;93.13;98172.28;4965666;28;20043;-68
2023/10/06 12:09:29;;;;;;;0.10;0.10;;;;;;;9.39;94.55;98174.13;4963766;28;20536;-68